createdAt,value
2022-09-10T05:00:51.183Z,5
2022-09-10T05:03:51.367Z,5
2022-09-10T05:06:51.561Z,5
2022-09-10T05:09:51.791Z,4.2
2022-09-10T05:12:52.009Z,3.4
2022-09-10T05:15:52.212Z,2.7
2022-09-10T05:18:52.412Z,2
2022-09-10T05:21:52.650Z,1.4
2022-09-10T05:24:52.868Z,1.6
2022-09-10T05:27:53.069Z,1.9
2022-09-10T05:30:53.291Z,2.2
2022-09-10T05:33:53.520Z,2.5
2022-09-10T05:36:53.738Z,2.7
2022-09-10T05:39:54.232Z,3
2022-09-10T05:42:54.159Z,3.4
2022-09-10T05:45:54.411Z,3.7
2022-09-10T05:48:54.625Z,4.1
2022-09-10T05:51:54.826Z,4.6
2022-09-10T05:54:55.025Z,5
2022-09-10T05:57:55.258Z,5.5
2022-09-10T06:00:55.471Z,6.1
2022-09-10T06:03:50.692Z,6.8
2022-09-10T06:06:55.905Z,7.3
2022-09-10T06:09:56.124Z,7.9
2022-09-10T06:12:51.357Z,8.5
2022-09-10T06:15:51.572Z,9.2
2022-09-10T06:18:51.802Z,10
2022-09-10T06:21:52.005Z,10.7
2022-09-10T06:24:52.218Z,11.4
2022-09-10T06:27:52.439Z,12
2022-09-10T06:30:52.699Z,12.7
2022-09-10T06:33:52.883Z,13.4
2022-09-10T06:36:53.100Z,14.1
2022-09-10T06:39:53.369Z,14.7
2022-09-10T06:42:53.534Z,15.2
2022-09-10T06:45:53.777Z,15.8
2022-09-10T06:48:54.273Z,16.6
2022-09-10T06:51:54.393Z,17.3
2022-09-10T06:54:54.435Z,18
2022-09-10T06:57:54.620Z,18.8
2022-09-10T07:00:54.902Z,19.5
2022-09-10T07:03:55.110Z,20.1
2022-09-10T07:06:55.291Z,20.7
2022-09-10T07:09:55.509Z,21.5
2022-09-10T07:12:55.732Z,22.1
2022-09-10T07:15:55.993Z,22.6
2022-09-10T07:18:56.180Z,23.1
2022-09-10T07:21:51.393Z,23.5
2022-09-10T07:25:01.644Z,24
2022-09-10T07:27:51.742Z,24.5
2022-09-10T07:30:52.049Z,24.9
2022-09-10T07:33:52.205Z,24.9
2022-09-10T07:36:52.436Z,24.9
2022-09-10T07:39:52.681Z,25
2022-09-10T07:42:52.856Z,25.2
2022-09-10T07:45:53.175Z,25.6
2022-09-10T07:48:53.310Z,26.1
2022-09-10T07:51:59.643Z,26.4
2022-09-10T07:54:53.741Z,27.1
2022-09-10T07:57:57.261Z,28.7
2022-09-10T08:00:54.176Z,31.2
2022-09-10T08:03:54.401Z,32.2
2022-09-10T08:06:54.646Z,33
2022-09-10T08:09:54.813Z,33.2
2022-09-10T08:12:55.050Z,33.4
2022-09-10T08:15:55.378Z,33.6
2022-09-10T08:18:50.507Z,33.2
2022-09-10T08:21:55.828Z,32.2
2022-09-10T08:24:50.964Z,30.4
2022-09-10T08:27:51.165Z,30.1
2022-09-10T08:30:51.381Z,29.7
2022-09-10T08:33:51.595Z,29.6
2022-09-10T08:36:51.789Z,29.5
2022-09-10T08:39:52.088Z,29.8
2022-09-10T08:42:52.232Z,30.3
2022-09-10T08:45:52.625Z,30.8
2022-09-10T08:48:52.675Z,31.2
2022-09-10T08:51:52.902Z,31.5
2022-09-10T08:54:53.291Z,32
2022-09-10T08:57:53.335Z,32.8
2022-09-10T09:00:53.547Z,33.5
2022-09-10T09:03:53.857Z,34.3
2022-09-10T09:06:54.097Z,34.9
2022-09-10T09:09:54.214Z,35.4
2022-09-10T09:12:54.441Z,36.3
2022-09-10T09:15:54.677Z,37.3
2022-09-10T09:18:54.879Z,39
2022-09-10T09:21:55.107Z,39.3
2022-09-10T09:24:55.375Z,39.2
2022-09-10T09:27:55.548Z,38.9
2022-09-10T09:30:50.785Z,39.4
2022-09-10T09:33:50.965Z,40.3
2022-09-10T09:36:51.187Z,40.7
2022-09-10T09:39:51.443Z,40.1
2022-09-10T09:42:51.614Z,38.1
2022-09-10T09:45:51.882Z,37.9
2022-09-10T09:48:52.053Z,38.9
2022-09-10T09:51:52.279Z,40.8
2022-09-10T09:55:13.667Z,43.7
2022-09-10T09:57:52.718Z,45.4
2022-09-10T10:00:52.933Z,48
2022-09-10T10:03:53.162Z,52.2
2022-09-10T10:06:53.588Z,54.2
2022-09-10T10:09:53.598Z,54.6
2022-09-10T10:12:53.808Z,52.9
2022-09-10T10:15:54.318Z,49.4
2022-09-10T10:18:54.314Z,43.3
2022-09-10T10:21:54.474Z,37.7
2022-09-10T10:24:54.690Z,31.8
2022-09-10T10:27:54.962Z,25.8
2022-09-10T10:30:55.168Z,23.2
2022-09-10T10:33:55.368Z,22.4
2022-09-10T10:36:55.575Z,23.1
2022-09-10T10:39:55.821Z,25.4
2022-09-10T10:42:51.020Z,29.1
2022-09-10T10:45:51.359Z,37.6
2022-09-10T10:48:51.441Z,41.3
2022-09-10T10:51:51.688Z,43.6
2022-09-10T10:54:51.888Z,44.2
2022-09-10T10:57:52.101Z,42.9
2022-09-10T11:00:52.327Z,40.9
2022-09-10T11:03:52.635Z,38.3
2022-09-10T11:06:52.773Z,34.9
2022-09-10T11:09:53.286Z,27.4
2022-09-10T11:12:53.204Z,25.2
2022-09-10T11:15:53.459Z,24.7
2022-09-10T11:18:53.649Z,26.1
2022-09-10T11:21:53.852Z,29.7
2022-09-10T11:24:54.079Z,33.6
2022-09-10T11:27:54.501Z,40.3
2022-09-10T11:30:59.543Z,44.4
2022-09-10T11:33:54.936Z,46.9
2022-09-10T11:36:54.960Z,50.1
2022-09-10T11:39:55.262Z,54.1
2022-09-10T11:42:55.379Z,57.1
2022-09-10T11:45:55.661Z,59.8
2022-09-10T11:48:55.833Z,63.9
2022-09-10T11:51:51.017Z,74.5
2022-09-10T11:54:51.268Z,93.2
2022-09-10T11:57:51.482Z,107.5
2022-09-10T12:00:51.701Z,119.5
2022-09-10T12:03:51.986Z,125.9
2022-09-10T12:06:52.141Z,130.6
2022-09-10T12:09:52.360Z,133.4
2022-09-10T12:12:52.597Z,135.2
2022-09-10T12:15:52.865Z,127
2022-09-10T12:18:53.027Z,112.2
2022-09-10T12:21:53.246Z,98.7
2022-09-10T12:24:53.462Z,86.1
2022-09-10T12:27:53.668Z,76.5
2022-09-10T12:30:54.173Z,67.9
2022-09-10T12:33:54.098Z,60.7
2022-09-10T12:36:54.348Z,53.2
2022-09-10T12:39:54.599Z,47.6
2022-09-10T12:42:54.782Z,45.2
2022-09-10T12:45:55.025Z,47.2
2022-09-10T12:48:55.226Z,49
2022-09-10T12:51:55.429Z,52.4
2022-09-10T12:54:55.662Z,56.3
2022-09-10T12:57:55.864Z,57.9
2022-09-10T13:00:51.089Z,59.8
2022-09-10T13:03:51.287Z,60.7
2022-09-10T13:06:51.535Z,59.7
2022-09-10T13:09:51.742Z,57.8
2022-09-10T13:12:51.970Z,55.3
2022-09-10T13:15:52.249Z,52.4
2022-09-10T13:18:56.819Z,49.6
2022-09-10T13:21:52.616Z,47.6
2022-09-10T13:24:52.842Z,44.5
2022-09-10T13:27:53.047Z,42.3
2022-09-10T13:30:53.534Z,40.6
2022-09-10T13:33:53.520Z,40.6
2022-09-10T13:36:53.714Z,41.7
2022-09-10T13:39:58.962Z,46.5
2022-09-10T13:42:54.154Z,47.6
2022-09-10T13:45:54.438Z,48.6
2022-09-10T13:48:54.601Z,53.8
2022-09-10T13:51:54.811Z,58.3
2022-09-10T13:54:55.032Z,64.3
2022-09-10T13:57:55.235Z,64.5
2022-09-10T14:00:55.465Z,74.6
2022-09-10T14:03:55.681Z,85.3
2022-09-10T14:06:55.903Z,98.6
2022-09-10T14:09:51.098Z,107
2022-09-10T14:12:51.327Z,119.9
2022-09-10T14:15:51.570Z,193.8
2022-09-10T14:18:51.771Z,193.9
2022-09-10T14:21:51.982Z,197.8
2022-09-10T14:24:52.422Z,192.6
2022-09-10T14:27:55.354Z,180.7
2022-09-10T14:30:57.707Z,168.9
2022-09-10T14:33:52.869Z,162.3
2022-09-10T14:36:53.105Z,147.3
2022-09-10T14:39:53.340Z,70.1
2022-09-10T14:42:53.731Z,64.2
2022-09-10T14:45:53.781Z,58.9
2022-09-10T14:48:53.990Z,51.9
2022-09-10T14:51:54.172Z,47.4
2022-09-10T14:54:54.436Z,44.2
2022-09-10T14:57:54.620Z,42.7
2022-09-10T15:00:54.847Z,41.5
2022-09-10T15:03:55.050Z,40.9
2022-09-10T15:06:55.286Z,41.3
2022-09-10T15:09:50.502Z,42.8
2022-09-10T15:12:55.711Z,44.5
2022-09-10T15:15:55.982Z,45.6
2022-09-10T15:18:51.140Z,46.2
2022-09-10T15:21:51.362Z,46.1
2022-09-10T15:27:52.057Z,45.6
2022-09-10T15:30:57.058Z,44.6
2022-09-10T15:33:52.240Z,42.7
2022-09-10T15:36:52.479Z,41.1
2022-09-10T15:39:52.746Z,39.7
2022-09-10T15:42:52.908Z,38.6
2022-09-10T15:45:53.101Z,37.8
2022-09-10T15:48:53.370Z,37.4
2022-09-10T15:51:53.566Z,37.3
2022-09-10T15:54:53.819Z,37.4
2022-09-10T15:57:54.003Z,36.6
2022-09-10T16:00:59.237Z,35.6
2022-09-10T16:03:54.463Z,34.6
2022-09-10T16:06:54.678Z,33.8
2022-09-10T16:09:54.890Z,32.3
2022-09-10T16:12:55.116Z,30.7
2022-09-10T16:15:55.344Z,28.8
2022-09-10T16:18:55.641Z,26.7
2022-09-10T16:21:50.759Z,25.7
2022-09-10T16:24:51.028Z,24.9
2022-09-10T16:27:56.228Z,24.3
2022-09-10T16:31:11.451Z,23.6
2022-09-10T16:33:54.649Z,22.7
2022-09-10T16:36:51.842Z,22
2022-09-10T16:39:52.146Z,21.7
2022-09-10T16:42:52.293Z,21.5
2022-09-10T16:45:52.521Z,21
2022-09-10T16:48:52.728Z,20.3
2022-09-10T16:51:52.956Z,19.5
2022-09-10T16:54:53.175Z,18.5
2022-09-10T16:57:53.422Z,17.6
2022-09-10T17:00:53.611Z,16.4
2022-09-10T17:03:53.982Z,15.1
2022-09-10T17:06:54.053Z,13.5
2022-09-10T17:09:58.729Z,12.1
2022-09-10T17:12:54.490Z,10.6
2022-09-10T17:15:54.750Z,9.2
2022-09-10T17:18:54.928Z,7.8
2022-09-10T17:21:55.158Z,6.6
2022-09-10T17:24:55.367Z,5.4
2022-09-10T17:27:55.597Z,4.4
2022-09-10T17:30:55.856Z,3.5
2022-09-10T17:33:51.226Z,2.8
2022-09-10T17:36:51.240Z,2.3
2022-09-10T17:39:51.593Z,1.9
2022-09-10T17:42:51.679Z,1.9
2022-09-10T17:45:51.908Z,1.9
2022-09-10T17:48:52.128Z,1.9
2022-09-10T17:51:52.357Z,1.9
2022-09-10T17:54:52.566Z,1.9
2022-09-10T17:57:52.789Z,1.9
2022-09-10T18:00:53.000Z,1.9
2022-09-10T18:03:53.229Z,1.9
2022-09-10T18:06:53.436Z,1.9
2022-09-10T18:09:53.881Z,1.9
2022-09-10T18:12:57.180Z,1.9
2022-09-10T18:15:54.130Z,1.9
2022-09-10T18:18:54.325Z,1.9
2022-09-10T18:21:54.544Z,1.9
2022-09-10T18:24:54.761Z,1.9
2022-09-10T18:27:55.015Z,1.9
2022-09-10T18:30:55.221Z,1.9
2022-09-10T18:33:55.629Z,1.9
2022-09-10T18:36:50.746Z,1.9
2022-09-10T18:39:50.918Z,1.9
2022-09-10T20:39:54.926Z,2.2
2022-09-10T20:42:54.894Z,2.6
2022-09-10T20:45:55.108Z,3.1
2022-09-10T20:48:55.311Z,3
2022-09-10T20:51:55.561Z,3.6
2022-09-10T20:54:55.781Z,3.6
2022-09-10T20:57:51.098Z,3.6
2022-09-10T21:00:51.213Z,3.6
2022-09-10T21:03:51.445Z,3.6
2022-09-10T21:06:51.664Z,3.6
2022-09-10T21:09:52.024Z,3.6
2022-09-10T21:12:52.132Z,3.6
2022-09-10T21:15:52.343Z,3.6
2022-09-10T21:18:54.821Z,3.6
2022-09-10T21:21:52.985Z,3.6
2022-09-10T21:24:52.991Z,3.6
2022-09-10T21:27:53.229Z,3.6
2022-09-10T21:30:58.583Z,3.6
2022-09-10T21:33:53.660Z,3.6
2022-09-10T21:36:53.892Z,3.6
2022-09-10T21:39:54.234Z,3.6
2022-09-10T21:42:54.341Z,3.6
2022-09-10T21:45:54.585Z,3.6
2022-09-10T21:48:54.771Z,3.6
2022-09-10T21:51:55.001Z,3.6
